Huvudsida
METAR-TAF:

METAR-TAF

Flygplatser :

Bric della Croce

Turin, Italien

latitud: 45-02N, longitud: 007-44E, höjd: 709 m

Aktuellt väderrapport

Denna rapport gjordes för 58 minuter sedan, klockan 22:55 UTC
Stilla vind
Temperatur 3°C
Fuktighet 100%
Tryck 1003 hPa
Sikt 10 km eller mer
Mulet på en höjd av 1600 ft
lätt regn

METAR: LIMK 152255Z 00000KT 9999 -RA OVC016 03/03 Q1003 RMK OVC VAL NIL VIS MIN 9999

Tid: 00:53 (23:53 UTC)


TAF: saknas

Aktuella väderrapporter och prognoser från 4000 flygplatser (METAR- och TAF-rapporter).

De tillgängliga stationerna syns som gula och röda prickar på kartan.

För musen över prickarna för att se namnen på stationerna.

Klicka sedan för att få väderrapporter och prognoser.

För att ändra kartan: Klicka på de gröna knapparna med ett svart kors på för att zooma in; den gröna knappen med ett streck på för att zooma ut; eller på de gröna pilarna för angränsande kartor.


METAR-TAF: